createdAt,value
2018-09-25T19:59:05.136Z,78.00
2018-09-25T20:01:38.800Z,76.50
2018-09-25T20:04:12.550Z,76.60
2018-09-25T20:06:46.319Z,76.50
2018-09-25T20:09:19.987Z,77.00
2018-09-25T20:11:53.593Z,77.90
2018-09-25T20:14:27.277Z,77.90
2018-09-25T20:17:00.876Z,77.20
2018-09-25T20:19:34.683Z,77.80
2018-09-25T20:22:08.128Z,78.30
2018-09-25T20:24:41.842Z,79.10
2018-09-25T20:27:15.576Z,78.50
2018-09-25T20:29:49.305Z,78.90
2018-09-25T20:32:22.984Z,79.00
2018-09-25T20:34:56.612Z,78.70
2018-09-25T20:37:30.591Z,79.20
2018-09-25T20:40:04.264Z,79.10
2018-09-25T20:42:38.031Z,79.70
2018-09-25T20:45:11.677Z,80.50
2018-09-25T20:47:45.419Z,80.80
2018-09-25T20:50:19.123Z,81.00
2018-09-25T20:52:52.928Z,81.10
2018-09-25T20:55:26.712Z,81.80
2018-09-25T20:58:00.466Z,80.40
2018-09-25T21:00:34.149Z,81.30
2018-09-25T21:03:08.323Z,84.10
2018-09-25T21:05:41.960Z,85.80
2018-09-25T21:08:15.776Z,84.40
2018-09-25T21:10:49.575Z,84.80
2018-09-25T21:13:23.430Z,84.90
2018-09-25T21:15:57.109Z,85.20
2018-09-25T21:18:30.800Z,85.60
2018-09-25T21:21:04.615Z,85.90
2018-09-25T21:23:38.257Z,86.20
2018-09-25T21:26:12.032Z,86.60
2018-09-25T21:28:45.814Z,89.10
2018-09-25T21:31:19.396Z,91.00
2018-09-25T21:33:53.019Z,90.30
2018-09-25T21:36:26.599Z,89.50
2018-09-25T21:39:00.311Z,89.30
2018-09-25T21:41:33.973Z,90.00
2018-09-25T21:44:07.708Z,90.50
2018-09-25T21:46:41.408Z,90.80
2018-09-25T21:49:15.280Z,91.00
2018-09-25T21:51:49.105Z,91.20
2018-09-25T21:54:22.713Z,91.30
2018-09-25T21:56:56.544Z,91.50
2018-09-25T21:59:30.183Z,91.90
2018-09-25T22:02:03.802Z,92.20
2018-09-25T22:04:37.437Z,92.90
2018-09-25T22:07:11.052Z,92.70
2018-09-25T22:09:44.688Z,93.00
2018-09-25T22:12:18.272Z,93.30
2018-09-25T22:14:51.980Z,93.70
2018-09-25T22:17:25.593Z,93.90
2018-09-25T22:19:59.200Z,94.30
2018-09-25T22:22:32.772Z,94.60
2018-09-25T22:25:06.396Z,95.00
2018-09-25T22:27:40.128Z,95.40
2018-09-25T22:30:13.819Z,95.80
2018-09-25T22:32:47.587Z,95.90
2018-09-25T22:35:21.284Z,96.00
2018-09-25T22:37:54.871Z,96.20
2018-09-25T22:40:28.531Z,96.40
2018-09-25T22:43:02.077Z,96.60
2018-09-25T22:45:35.601Z,97.00
2018-09-25T22:48:09.282Z,97.00
2018-09-25T22:50:43.057Z,96.90
2018-09-25T22:53:16.740Z,97.00
2018-09-25T22:55:50.440Z,97.50
2018-09-25T22:58:30.616Z,97.90
2018-09-25T23:01:04.218Z,97.80
2018-09-25T23:03:37.855Z,97.70
2018-09-25T23:06:11.680Z,97.70
2018-09-25T23:08:45.408Z,97.90
2018-09-25T23:11:19.232Z,98.30
2018-09-25T23:13:53.028Z,98.70
2018-09-25T23:16:26.792Z,99.40
2018-09-25T23:19:00.457Z,99.90
2018-09-25T23:21:34.252Z,99.90
2018-09-25T23:24:08.041Z,99.90
2018-09-25T23:26:41.675Z,99.90
2018-09-25T23:29:15.393Z,99.90
2018-09-25T23:31:48.971Z,99.90
2018-09-25T23:34:22.548Z,99.90
2018-09-25T23:36:56.201Z,99.90
2018-09-25T23:40:29.244Z,99.90
2018-09-25T23:43:33.852Z,99.90
2018-09-25T23:46:07.299Z,99.90
2018-09-25T23:48:47.920Z,99.90
2018-09-25T23:51:20.631Z,99.90
2018-09-25T23:53:57.337Z,99.90
2018-09-25T23:56:37.748Z,99.90
2018-09-25T23:59:10.180Z,99.90
